KFPR/FPR METAR and TAF weather

Enter ICAO airport designator
Station Type Date Time Source
KFPR METAR 2021/04/13 22:53 UTC NOAA

KFPR 132253Z 03004KT 10SM CLR 25/18 A3003 RMK AO2 SLP170 T02500183


Station Type Date Time Source
KFPR Decoded METAR 2021/04/13 22:53 UTC NOAA

FORT PIERCE ST LUCIE, FL, United States (KFPR) 27-30N 080-23W 13M
Apr 13, 2021 - 06:53 PM EDT / 2021.04.13 2253 UTC
Wind: from the NNE (030 degrees) at 5 MPH (4 KT):0
Visibility: 10 mile(s):0
Sky conditions: clear
Temperature: 77.0 F (25.0 C)
Dew Point: 64.9 F (18.3 C)
Relative Humidity: 66%
Pressure (altimeter): 30.03 in. Hg (1016 hPa)
ob: KFPR 132253Z 03004KT 10SM CLR 25/18 A3003 RMK AO2 SLP170 T02500183
cycle: 23

Station Type Date Time Source
KFPR TAF 2021/04/13 18:39 UTC NOAA

TAF KFPR 131736Z 1318/1418 03010KT P6SM SKC
FM132300 06009KT P6SM SKC
FM140300 VRB04KT P6SM SCT250
FM141500 11010KT P6SM FEW035 SCT250

Example: see airport list